sensor_id;sensor_type;location;lat;lon;timestamp;temperature;humidity
25652;DHT22;13508;50.734;4.232;2022-10-16T00:02:06;14.30;99.90
25652;DHT22;13508;50.734;4.232;2022-10-16T00:05:09;14.30;99.90
25652;DHT22;13508;50.734;4.232;2022-10-16T00:08:12;14.30;99.90
25652;DHT22;13508;50.734;4.232;2022-10-16T00:11:17;14.30;99.90
25652;DHT22;13508;50.734;4.232;2022-10-16T00:14:20;14.30;99.90
25652;DHT22;13508;50.734;4.232;2022-10-16T00:17:23;14.20;99.90
25652;DHT22;13508;50.734;4.232;2022-10-16T00:20:26;14.10;99.90
25652;DHT22;13508;50.734;4.232;2022-10-16T00:23:29;14.00;99.90
25652;DHT22;13508;50.734;4.232;2022-10-16T00:26:33;14.10;99.90
25652;DHT22;13508;50.734;4.232;2022-10-16T00:29:37;14.10;99.90
25652;DHT22;13508;50.734;4.232;2022-10-16T00:32:40;14.10;99.90
25652;DHT22;13508;50.734;4.232;2022-10-16T00:35:42;14.10;99.90
25652;DHT22;13508;50.734;4.232;2022-10-16T00:38:46;14.10;99.90
25652;DHT22;13508;50.734;4.232;2022-10-16T00:41:49;14.10;99.90
25652;DHT22;13508;50.734;4.232;2022-10-16T00:44:56;14.00;99.90
25652;DHT22;13508;50.734;4.232;2022-10-16T00:48:00;14.10;99.90
25652;DHT22;13508;50.734;4.232;2022-10-16T00:51:03;13.90;99.90
25652;DHT22;13508;50.734;4.232;2022-10-16T00:54:08;13.90;99.90
25652;DHT22;13508;50.734;4.232;2022-10-16T00:57:12;13.90;99.90
25652;DHT22;13508;50.734;4.232;2022-10-16T01:00:17;13.90;99.90
25652;DHT22;13508;50.734;4.232;2022-10-16T01:03:30;13.70;99.90
25652;DHT22;13508;50.734;4.232;2022-10-16T01:13:27;13.90;99.90
25652;DHT22;13508;50.734;4.232;2022-10-16T01:16:43;13.90;99.90
25652;DHT22;13508;50.734;4.232;2022-10-16T01:26:42;14.00;99.90
25652;DHT22;13508;50.734;4.232;2022-10-16T01:29:53;14.00;99.90
25652;DHT22;13508;50.734;4.232;2022-10-16T01:33:02;14.00;99.90
25652;DHT22;13508;50.734;4.232;2022-10-16T01:36:09;13.90;99.90
25652;DHT22;13508;50.734;4.232;2022-10-16T01:39:14;13.90;99.90
25652;DHT22;13508;50.734;4.232;2022-10-16T01:42:21;13.80;99.90
25652;DHT22;13508;50.734;4.232;2022-10-16T01:45:27;13.80;99.90
25652;DHT22;13508;50.734;4.232;2022-10-16T01:48:31;13.90;99.90
25652;DHT22;13508;50.734;4.232;2022-10-16T01:51:35;13.90;99.90
25652;DHT22;13508;50.734;4.232;2022-10-16T01:54:40;14.00;99.90
25652;DHT22;13508;50.734;4.232;2022-10-16T01:57:46;13.80;99.90
25652;DHT22;13508;50.734;4.232;2022-10-16T02:00:51;13.80;99.90
25652;DHT22;13508;50.734;4.232;2022-10-16T02:03:56;13.70;99.90
25652;DHT22;13508;50.734;4.232;2022-10-16T02:07:00;13.70;99.90
25652;DHT22;13508;50.734;4.232;2022-10-16T02:10:04;13.70;99.90
25652;DHT22;13508;50.734;4.232;2022-10-16T02:13:09;13.90;99.90
25652;DHT22;13508;50.734;4.232;2022-10-16T02:16:13;13.70;99.90
25652;DHT22;13508;50.734;4.232;2022-10-16T02:19:17;13.60;99.90
25652;DHT22;13508;50.734;4.232;2022-10-16T02:22:30;13.70;99.90
25652;DHT22;13508;50.734;4.232;2022-10-16T02:25:35;13.80;99.90
25652;DHT22;13508;50.734;4.232;2022-10-16T02:28:40;13.90;99.90
25652;DHT22;13508;50.734;4.232;2022-10-16T02:31:45;13.70;99.90
25652;DHT22;13508;50.734;4.232;2022-10-16T02:34:49;13.70;99.90
25652;DHT22;13508;50.734;4.232;2022-10-16T02:37:53;13.70;99.90
25652;DHT22;13508;50.734;4.232;2022-10-16T02:40:56;13.70;99.90
25652;DHT22;13508;50.734;4.232;2022-10-16T02:43:59;13.80;99.90
25652;DHT22;13508;50.734;4.232;2022-10-16T02:47:02;13.80;99.90
25652;DHT22;13508;50.734;4.232;2022-10-16T02:50:05;13.60;99.90
25652;DHT22;13508;50.734;4.232;2022-10-16T02:53:08;13.60;99.90
25652;DHT22;13508;50.734;4.232;2022-10-16T02:56:11;13.70;99.90
25652;DHT22;13508;50.734;4.232;2022-10-16T02:59:15;13.70;99.90
25652;DHT22;13508;50.734;4.232;2022-10-16T03:02:18;13.70;99.90
25652;DHT22;13508;50.734;4.232;2022-10-16T03:05:21;13.70;99.90
25652;DHT22;13508;50.734;4.232;2022-10-16T03:08:23;13.70;99.90
25652;DHT22;13508;50.734;4.232;2022-10-16T03:11:27;13.60;99.90
25652;DHT22;13508;50.734;4.232;2022-10-16T03:14:30;13.60;99.90
25652;DHT22;13508;50.734;4.232;2022-10-16T03:17:33;13.60;99.90
25652;DHT22;13508;50.734;4.232;2022-10-16T03:20:37;13.60;99.90
25652;DHT22;13508;50.734;4.232;2022-10-16T03:23:40;13.60;99.90
25652;DHT22;13508;50.734;4.232;2022-10-16T03:26:43;13.60;99.90
25652;DHT22;13508;50.734;4.232;2022-10-16T03:29:46;13.60;99.90
25652;DHT22;13508;50.734;4.232;2022-10-16T03:32:49;13.70;99.90
25652;DHT22;13508;50.734;4.232;2022-10-16T03:35:56;13.70;99.90
25652;DHT22;13508;50.734;4.232;2022-10-16T03:38:59;13.80;99.90
25652;DHT22;13508;50.734;4.232;2022-10-16T03:42:03;13.70;99.90
25652;DHT22;13508;50.734;4.232;2022-10-16T03:45:06;13.70;99.90
25652;DHT22;13508;50.734;4.232;2022-10-16T03:48:09;13.60;99.90
25652;DHT22;13508;50.734;4.232;2022-10-16T03:51:12;13.60;99.90
25652;DHT22;13508;50.734;4.232;2022-10-16T03:54:15;13.80;99.90
25652;DHT22;13508;50.734;4.232;2022-10-16T03:57:18;13.70;99.90
25652;DHT22;13508;50.734;4.232;2022-10-16T04:00:21;13.70;99.90
25652;DHT22;13508;50.734;4.232;2022-10-16T04:03:25;13.70;99.90
25652;DHT22;13508;50.734;4.232;2022-10-16T04:06:28;13.70;99.90
25652;DHT22;13508;50.734;4.232;2022-10-16T04:09:31;13.80;99.90
25652;DHT22;13508;50.734;4.232;2022-10-16T04:12:34;13.70;99.90
25652;DHT22;13508;50.734;4.232;2022-10-16T04:15:37;13.80;99.90
25652;DHT22;13508;50.734;4.232;2022-10-16T04:18:40;13.70;99.90
25652;DHT22;13508;50.734;4.232;2022-10-16T04:21:43;13.60;99.90
25652;DHT22;13508;50.734;4.232;2022-10-16T04:24:46;13.70;99.90
25652;DHT22;13508;50.734;4.232;2022-10-16T04:27:52;13.60;99.90
25652;DHT22;13508;50.734;4.232;2022-10-16T04:30:54;13.70;99.90
25652;DHT22;13508;50.734;4.232;2022-10-16T04:33:57;13.60;99.90
25652;DHT22;13508;50.734;4.232;2022-10-16T04:37:01;13.60;99.90
25652;DHT22;13508;50.734;4.232;2022-10-16T04:40:04;13.70;99.90
25652;DHT22;13508;50.734;4.232;2022-10-16T04:43:07;13.80;99.90
25652;DHT22;13508;50.734;4.232;2022-10-16T04:46:10;13.80;99.90
25652;DHT22;13508;50.734;4.232;2022-10-16T04:49:14;13.80;99.90
25652;DHT22;13508;50.734;4.232;2022-10-16T04:52:17;13.70;99.90
25652;DHT22;13508;50.734;4.232;2022-10-16T04:55:21;13.60;99.90
25652;DHT22;13508;50.734;4.232;2022-10-16T04:58:24;13.60;99.90
25652;DHT22;13508;50.734;4.232;2022-10-16T05:01:27;13.60;99.90
25652;DHT22;13508;50.734;4.232;2022-10-16T05:04:30;13.70;99.90
25652;DHT22;13508;50.734;4.232;2022-10-16T05:07:33;13.80;99.90
25652;DHT22;13508;50.734;4.232;2022-10-16T05:10:37;13.70;99.90
25652;DHT22;13508;50.734;4.232;2022-10-16T05:13:40;13.80;99.90
25652;DHT22;13508;50.734;4.232;2022-10-16T05:16:43;13.80;99.90
25652;DHT22;13508;50.734;4.232;2022-10-16T05:19:46;13.70;99.90
25652;DHT22;13508;50.734;4.232;2022-10-16T05:22:49;13.60;99.90
25652;DHT22;13508;50.734;4.232;2022-10-16T05:25:53;13.60;99.90
25652;DHT22;13508;50.734;4.232;2022-10-16T05:28:57;13.50;99.90
25652;DHT22;13508;50.734;4.232;2022-10-16T05:32:00;13.50;99.90
25652;DHT22;13508;50.734;4.232;2022-10-16T05:35:03;13.50;99.90
25652;DHT22;13508;50.734;4.232;2022-10-16T05:38:07;13.50;99.90
25652;DHT22;13508;50.734;4.232;2022-10-16T05:41:10;13.40;99.90
25652;DHT22;13508;50.734;4.232;2022-10-16T05:44:13;13.30;99.90
25652;DHT22;13508;50.734;4.232;2022-10-16T05:47:16;13.20;99.90
25652;DHT22;13508;50.734;4.232;2022-10-16T05:50:19;13.20;99.90
25652;DHT22;13508;50.734;4.232;2022-10-16T05:53:22;13.30;99.90
25652;DHT22;13508;50.734;4.232;2022-10-16T05:56:28;13.20;99.90
25652;DHT22;13508;50.734;4.232;2022-10-16T05:59:31;13.20;99.90
25652;DHT22;13508;50.734;4.232;2022-10-16T06:02:34;13.30;99.90
25652;DHT22;13508;50.734;4.232;2022-10-16T06:05:37;13.20;99.90
25652;DHT22;13508;50.734;4.232;2022-10-16T06:08:41;13.30;99.90
25652;DHT22;13508;50.734;4.232;2022-10-16T06:11:45;13.20;99.90
25652;DHT22;13508;50.734;4.232;2022-10-16T06:14:47;13.30;99.90
25652;DHT22;13508;50.734;4.232;2022-10-16T06:17:51;13.30;99.90
25652;DHT22;13508;50.734;4.232;2022-10-16T06:20:55;13.30;99.90
25652;DHT22;13508;50.734;4.232;2022-10-16T06:23:58;13.20;99.90
25652;DHT22;13508;50.734;4.232;2022-10-16T06:27:02;13.20;99.90
25652;DHT22;13508;50.734;4.232;2022-10-16T06:30:05;13.20;99.90
25652;DHT22;13508;50.734;4.232;2022-10-16T06:33:10;13.30;99.90
25652;DHT22;13508;50.734;4.232;2022-10-16T06:36:14;13.40;99.90
25652;DHT22;13508;50.734;4.232;2022-10-16T06:39:17;13.50;99.90
25652;DHT22;13508;50.734;4.232;2022-10-16T06:42:20;13.60;99.90
25652;DHT22;13508;50.734;4.232;2022-10-16T06:45:24;13.70;99.90
25652;DHT22;13508;50.734;4.232;2022-10-16T06:48:27;13.80;99.90
25652;DHT22;13508;50.734;4.232;2022-10-16T06:51:30;13.90;99.90
25652;DHT22;13508;50.734;4.232;2022-10-16T06:54:34;14.00;99.90
25652;DHT22;13508;50.734;4.232;2022-10-16T06:57:38;14.00;99.90
25652;DHT22;13508;50.734;4.232;2022-10-16T07:00:41;14.20;99.90
25652;DHT22;13508;50.734;4.232;2022-10-16T07:03:44;14.20;99.90
25652;DHT22;13508;50.734;4.232;2022-10-16T07:06:48;14.20;99.90
25652;DHT22;13508;50.734;4.232;2022-10-16T07:09:51;14.20;99.90
25652;DHT22;13508;50.734;4.232;2022-10-16T07:12:54;14.20;99.90
25652;DHT22;13508;50.734;4.232;2022-10-16T07:15:58;14.20;99.90
25652;DHT22;13508;50.734;4.232;2022-10-16T07:19:02;14.10;99.90
25652;DHT22;13508;50.734;4.232;2022-10-16T07:22:07;14.10;99.90
25652;DHT22;13508;50.734;4.232;2022-10-16T07:25:10;14.10;99.90
25652;DHT22;13508;50.734;4.232;2022-10-16T07:28:14;14.10;99.90
25652;DHT22;13508;50.734;4.232;2022-10-16T07:31:18;14.10;99.90
25652;DHT22;13508;50.734;4.232;2022-10-16T07:34:22;14.30;99.90
25652;DHT22;13508;50.734;4.232;2022-10-16T07:37:25;14.50;99.90
25652;DHT22;13508;50.734;4.232;2022-10-16T07:40:28;14.70;99.90
25652;DHT22;13508;50.734;4.232;2022-10-16T07:43:31;14.80;99.90
25652;DHT22;13508;50.734;4.232;2022-10-16T07:46:35;15.00;99.90
25652;DHT22;13508;50.734;4.232;2022-10-16T07:49:38;15.00;99.90
25652;DHT22;13508;50.734;4.232;2022-10-16T07:52:41;14.80;99.90
25652;DHT22;13508;50.734;4.232;2022-10-16T07:55:45;14.80;99.90
25652;DHT22;13508;50.734;4.232;2022-10-16T07:58:48;14.70;99.90
25652;DHT22;13508;50.734;4.232;2022-10-16T08:01:52;14.80;99.90
25652;DHT22;13508;50.734;4.232;2022-10-16T08:04:55;14.90;99.90
25652;DHT22;13508;50.734;4.232;2022-10-16T08:07:58;14.80;99.90
25652;DHT22;13508;50.734;4.232;2022-10-16T08:11:02;14.80;99.90
25652;DHT22;13508;50.734;4.232;2022-10-16T08:14:06;14.70;99.90
25652;DHT22;13508;50.734;4.232;2022-10-16T08:17:09;14.70;99.90
25652;DHT22;13508;50.734;4.232;2022-10-16T08:20:12;14.70;99.90
25652;DHT22;13508;50.734;4.232;2022-10-16T08:23:15;14.80;99.90
25652;DHT22;13508;50.734;4.232;2022-10-16T08:26:18;15.00;99.90
25652;DHT22;13508;50.734;4.232;2022-10-16T08:29:21;15.00;99.90
25652;DHT22;13508;50.734;4.232;2022-10-16T08:32:24;15.00;99.90
25652;DHT22;13508;50.734;4.232;2022-10-16T08:35:27;15.10;99.90
25652;DHT22;13508;50.734;4.232;2022-10-16T08:38:31;15.00;99.90
25652;DHT22;13508;50.734;4.232;2022-10-16T08:51:18;15.40;99.90
25652;DHT22;13508;50.734;4.232;2022-10-16T08:54:26;15.50;99.90
25652;DHT22;13508;50.734;4.232;2022-10-16T08:57:31;15.50;99.90
25652;DHT22;13508;50.734;4.232;2022-10-16T09:06:15;15.60;99.90
25652;DHT22;13508;50.734;4.232;2022-10-16T09:22:27;16.10;99.90
25652;DHT22;13508;50.734;4.232;2022-10-16T09:34:43;16.60;99.90
25652;DHT22;13508;50.734;4.232;2022-10-16T09:37:49;18.20;99.90
25652;DHT22;13508;50.734;4.232;2022-10-16T09:40:53;19.70;99.90
25652;DHT22;13508;50.734;4.232;2022-10-16T09:43:57;20.70;99.90
25652;DHT22;13508;50.734;4.232;2022-10-16T09:47:10;21.10;99.90
25652;DHT22;13508;50.734;4.232;2022-10-16T09:50:22;22.30;99.90
25652;DHT22;13508;50.734;4.232;2022-10-16T09:57:05;23.10;99.90
25652;DHT22;13508;50.734;4.232;2022-10-16T10:00:09;22.20;99.90
25652;DHT22;13508;50.734;4.232;2022-10-16T10:03:11;21.80;99.90
25652;DHT22;13508;50.734;4.232;2022-10-16T10:06:20;21.80;99.90
25652;DHT22;13508;50.734;4.232;2022-10-16T10:09:28;22.10;99.90
25652;DHT22;13508;50.734;4.232;2022-10-16T10:12:32;23.20;99.90
25652;DHT22;13508;50.734;4.232;2022-10-16T10:15:41;22.30;99.90
25652;DHT22;13508;50.734;4.232;2022-10-16T10:18:44;22.30;99.90
25652;DHT22;13508;50.734;4.232;2022-10-16T10:21:47;23.40;99.90
25652;DHT22;13508;50.734;4.232;2022-10-16T10:24:59;23.30;99.90
25652;DHT22;13508;50.734;4.232;2022-10-16T10:28:09;22.80;99.90
25652;DHT22;13508;50.734;4.232;2022-10-16T10:40:50;23.10;99.90
25652;DHT22;13508;50.734;4.232;2022-10-16T10:44:03;22.00;99.90
25652;DHT22;13508;50.734;4.232;2022-10-16T10:50:52;22.40;99.90
25652;DHT22;13508;50.734;4.232;2022-10-16T11:07:25;20.80;99.90
25652;DHT22;13508;50.734;4.232;2022-10-16T11:10:30;20.80;99.90
25652;DHT22;13508;50.734;4.232;2022-10-16T11:17:05;22.30;99.90
25652;DHT22;13508;50.734;4.232;2022-10-16T11:23:25;23.40;99.90
25652;DHT22;13508;50.734;4.232;2022-10-16T11:26:31;23.90;99.90
25652;DHT22;13508;50.734;4.232;2022-10-16T11:29:39;26.10;99.90
25652;DHT22;13508;50.734;4.232;2022-10-16T11:32:54;27.50;96.40
25652;DHT22;13508;50.734;4.232;2022-10-16T11:39:08;24.30;99.90
25652;DHT22;13508;50.734;4.232;2022-10-16T11:42:30;23.40;99.90
25652;DHT22;13508;50.734;4.232;2022-10-16T11:45:36;22.20;99.90
25652;DHT22;13508;50.734;4.232;2022-10-16T11:55:27;21.30;99.90
25652;DHT22;13508;50.734;4.232;2022-10-16T12:04:45;21.60;99.90
25652;DHT22;13508;50.734;4.232;2022-10-16T12:08:02;21.90;99.90
25652;DHT22;13508;50.734;4.232;2022-10-16T12:11:08;21.80;99.90
25652;DHT22;13508;50.734;4.232;2022-10-16T12:17:22;21.50;99.90
25652;DHT22;13508;50.734;4.232;2022-10-16T12:20:27;21.40;99.90
25652;DHT22;13508;50.734;4.232;2022-10-16T12:23:36;21.90;99.90
25652;DHT22;13508;50.734;4.232;2022-10-16T12:26:39;22.40;99.90
25652;DHT22;13508;50.734;4.232;2022-10-16T12:29:47;21.90;99.90
25652;DHT22;13508;50.734;4.232;2022-10-16T12:32:53;22.10;99.90
25652;DHT22;13508;50.734;4.232;2022-10-16T12:35:58;22.10;99.90
25652;DHT22;13508;50.734;4.232;2022-10-16T12:39:02;22.70;99.90
25652;DHT22;13508;50.734;4.232;2022-10-16T12:42:19;22.50;99.90
25652;DHT22;13508;50.734;4.232;2022-10-16T12:48:25;22.40;99.90
25652;DHT22;13508;50.734;4.232;2022-10-16T12:54:36;21.40;99.90
25652;DHT22;13508;50.734;4.232;2022-10-16T13:29:30;22.20;99.90
25652;DHT22;13508;50.734;4.232;2022-10-16T13:32:33;22.80;99.90
25652;DHT22;13508;50.734;4.232;2022-10-16T13:35:36;23.40;99.90
25652;DHT22;13508;50.734;4.232;2022-10-16T13:38:40;23.00;99.90
25652;DHT22;13508;50.734;4.232;2022-10-16T13:41:43;22.40;99.90
25652;DHT22;13508;50.734;4.232;2022-10-16T13:44:48;22.50;99.90
25652;DHT22;13508;50.734;4.232;2022-10-16T13:48:05;22.20;99.90
25652;DHT22;13508;50.734;4.232;2022-10-16T13:51:13;22.30;99.90
25652;DHT22;13508;50.734;4.232;2022-10-16T13:54:16;21.60;99.90
25652;DHT22;13508;50.734;4.232;2022-10-16T13:57:21;21.40;99.90
25652;DHT22;13508;50.734;4.232;2022-10-16T14:00:25;21.00;99.90
25652;DHT22;13508;50.734;4.232;2022-10-16T14:03:32;20.90;99.90
25652;DHT22;13508;50.734;4.232;2022-10-16T14:06:36;20.60;99.90
25652;DHT22;13508;50.734;4.232;2022-10-16T14:09:47;20.40;99.90
25652;DHT22;13508;50.734;4.232;2022-10-16T14:12:54;20.40;99.90
25652;DHT22;13508;50.734;4.232;2022-10-16T14:15:57;20.50;99.90
25652;DHT22;13508;50.734;4.232;2022-10-16T14:19:03;20.80;99.90
25652;DHT22;13508;50.734;4.232;2022-10-16T14:25:32;21.20;99.90
25652;DHT22;13508;50.734;4.232;2022-10-16T14:28:36;21.70;99.90
25652;DHT22;13508;50.734;4.232;2022-10-16T14:31:39;22.00;99.90
25652;DHT22;13508;50.734;4.232;2022-10-16T14:34:52;21.90;99.90
25652;DHT22;13508;50.734;4.232;2022-10-16T14:37:56;21.90;99.90
25652;DHT22;13508;50.734;4.232;2022-10-16T14:41:00;21.90;99.90
25652;DHT22;13508;50.734;4.232;2022-10-16T14:44:03;22.40;99.90
25652;DHT22;13508;50.734;4.232;2022-10-16T14:47:08;22.60;99.90
25652;DHT22;13508;50.734;4.232;2022-10-16T14:50:12;22.00;99.90
25652;DHT22;13508;50.734;4.232;2022-10-16T14:53:15;21.70;99.90
25652;DHT22;13508;50.734;4.232;2022-10-16T14:56:19;21.60;99.90
25652;DHT22;13508;50.734;4.232;2022-10-16T15:02:36;21.60;99.90
25652;DHT22;13508;50.734;4.232;2022-10-16T15:05:39;21.70;99.90
25652;DHT22;13508;50.734;4.232;2022-10-16T15:08:42;21.60;99.90
25652;DHT22;13508;50.734;4.232;2022-10-16T15:11:45;21.30;99.90
25652;DHT22;13508;50.734;4.232;2022-10-16T15:14:49;21.20;99.90
25652;DHT22;13508;50.734;4.232;2022-10-16T15:17:53;21.60;99.90
25652;DHT22;13508;50.734;4.232;2022-10-16T15:20:58;21.60;99.90
25652;DHT22;13508;50.734;4.232;2022-10-16T15:24:01;21.60;99.90
25652;DHT22;13508;50.734;4.232;2022-10-16T15:27:05;21.60;99.90
25652;DHT22;13508;50.734;4.232;2022-10-16T15:30:08;21.60;99.90
25652;DHT22;13508;50.734;4.232;2022-10-16T15:33:15;21.40;99.90
25652;DHT22;13508;50.734;4.232;2022-10-16T15:36:28;21.20;99.90
25652;DHT22;13508;50.734;4.232;2022-10-16T15:39:31;21.10;99.90
25652;DHT22;13508;50.734;4.232;2022-10-16T15:42:35;20.90;99.90
25652;DHT22;13508;50.734;4.232;2022-10-16T15:45:37;20.80;99.90
25652;DHT22;13508;50.734;4.232;2022-10-16T15:48:41;20.60;99.90
25652;DHT22;13508;50.734;4.232;2022-10-16T15:51:44;20.50;99.90
25652;DHT22;13508;50.734;4.232;2022-10-16T15:54:48;20.40;99.90
25652;DHT22;13508;50.734;4.232;2022-10-16T15:57:51;20.50;99.90
25652;DHT22;13508;50.734;4.232;2022-10-16T16:00:55;20.30;99.90
25652;DHT22;13508;50.734;4.232;2022-10-16T16:03:59;20.30;99.90
25652;DHT22;13508;50.734;4.232;2022-10-16T16:07:02;20.10;99.90
25652;DHT22;13508;50.734;4.232;2022-10-16T16:10:05;20.00;99.90
25652;DHT22;13508;50.734;4.232;2022-10-16T16:13:09;20.00;99.90
25652;DHT22;13508;50.734;4.232;2022-10-16T16:16:13;20.10;99.90
25652;DHT22;13508;50.734;4.232;2022-10-16T16:19:17;20.10;99.90
25652;DHT22;13508;50.734;4.232;2022-10-16T16:22:23;20.00;99.90
25652;DHT22;13508;50.734;4.232;2022-10-16T16:25:26;20.10;99.90
25652;DHT22;13508;50.734;4.232;2022-10-16T16:28:29;20.00;99.90
25652;DHT22;13508;50.734;4.232;2022-10-16T16:31:33;20.00;99.90
25652;DHT22;13508;50.734;4.232;2022-10-16T16:34:37;19.90;99.90
25652;DHT22;13508;50.734;4.232;2022-10-16T16:37:40;19.60;99.90
25652;DHT22;13508;50.734;4.232;2022-10-16T16:40:44;19.40;99.90
25652;DHT22;13508;50.734;4.232;2022-10-16T16:43:47;19.20;99.90
25652;DHT22;13508;50.734;4.232;2022-10-16T16:46:50;19.00;99.90
25652;DHT22;13508;50.734;4.232;2022-10-16T16:49:53;18.90;99.90
25652;DHT22;13508;50.734;4.232;2022-10-16T16:52:56;18.90;99.90
25652;DHT22;13508;50.734;4.232;2022-10-16T16:56:00;18.90;99.90
25652;DHT22;13508;50.734;4.232;2022-10-16T16:59:03;18.80;99.90
25652;DHT22;13508;50.734;4.232;2022-10-16T17:02:08;18.80;99.90
25652;DHT22;13508;50.734;4.232;2022-10-16T17:05:11;18.70;99.90
25652;DHT22;13508;50.734;4.232;2022-10-16T17:08:14;18.50;99.90
25652;DHT22;13508;50.734;4.232;2022-10-16T17:11:18;18.50;99.90
25652;DHT22;13508;50.734;4.232;2022-10-16T17:14:22;18.40;99.90
25652;DHT22;13508;50.734;4.232;2022-10-16T17:17:25;18.80;99.90
25652;DHT22;13508;50.734;4.232;2022-10-16T17:20:28;19.20;99.90
25652;DHT22;13508;50.734;4.232;2022-10-16T17:23:31;18.90;99.90
25652;DHT22;13508;50.734;4.232;2022-10-16T17:26:34;18.70;99.90
25652;DHT22;13508;50.734;4.232;2022-10-16T17:29:40;18.70;99.90
25652;DHT22;13508;50.734;4.232;2022-10-16T17:32:43;18.90;99.90
25652;DHT22;13508;50.734;4.232;2022-10-16T17:35:46;18.90;99.90
25652;DHT22;13508;50.734;4.232;2022-10-16T17:38:49;18.90;99.90
25652;DHT22;13508;50.734;4.232;2022-10-16T17:41:53;18.90;99.90
25652;DHT22;13508;50.734;4.232;2022-10-16T17:44:56;18.70;99.90
25652;DHT22;13508;50.734;4.232;2022-10-16T17:47:59;18.40;99.90
25652;DHT22;13508;50.734;4.232;2022-10-16T17:51:05;18.20;99.90
25652;DHT22;13508;50.734;4.232;2022-10-16T17:54:09;18.40;99.90
25652;DHT22;13508;50.734;4.232;2022-10-16T17:57:13;18.60;99.90
25652;DHT22;13508;50.734;4.232;2022-10-16T18:00:16;18.20;99.90
25652;DHT22;13508;50.734;4.232;2022-10-16T18:03:19;18.10;99.90
25652;DHT22;13508;50.734;4.232;2022-10-16T18:06:23;18.20;99.90
25652;DHT22;13508;50.734;4.232;2022-10-16T18:09:26;18.40;99.90
25652;DHT22;13508;50.734;4.232;2022-10-16T18:12:29;18.60;99.90
25652;DHT22;13508;50.734;4.232;2022-10-16T18:15:32;18.40;99.90
25652;DHT22;13508;50.734;4.232;2022-10-16T18:18:39;18.00;99.90
25652;DHT22;13508;50.734;4.232;2022-10-16T18:21:43;17.70;99.90
25652;DHT22;13508;50.734;4.232;2022-10-16T18:24:46;17.90;99.90
